| time (UTC) | temp C | wind direction | speed KPH | gust KPH | rain 1hr cm | rain 24hr cm | rain mn cm | humidity % | barometer mb |
| 20260505214004 | 26 | 351 | 3.2 | 8.0 | 0.00 | 0.00 | 0.00 | 34 | 1010.6 |
| 20260505213504 | 26 | 336 | 1.6 | 4.8 | 0.00 | 0.00 | 0.00 | 34 | 1010.5 |
| 20260505213003 | 27 | 355 | 3.2 | 8.0 | 0.00 | 0.00 | 0.00 | 33 | 1010.6 |
| 20260505212503 | 27 | 324 | 1.6 | 4.8 | 0.00 | 0.00 | 0.00 | 32 | 1010.8 |
| 20260505212003 | 27 | 351 | 3.2 | 9.7 | 0.00 | 0.00 | 0.00 | 32 | 1010.8 |
| 20260505210504 | 27 | 10 | 0.0 | 4.8 | 0.00 | 0.00 | 0.00 | 29 | 1010.9 |
| 20260505210004 | 27 | 174 | 1.6 | 3.2 | 0.00 | 0.00 | 0.00 | 30 | 1010.9 |
| 20260505205503 | 27 | 119 | 3.2 | 9.7 | 0.00 | 0.00 | 0.00 | 28 | 1010.8 |
| 20260505205003 | 27 | 209 | 1.6 | 16.1 | 0.00 | 0.00 | 0.00 | 29 | 1010.9 |
| 20260505204503 | 27 | 277 | 0.0 | 16.1 | 0.00 | 0.00 | 0.00 | 28 | 1010.9 |
| 20260505204004 | 27 | 136 | 1.6 | 4.8 | 0.00 | 0.00 | 0.00 | 30 | 1010.9 |
| 20260505203503 | 27 | 159 | 0.0 | 3.2 | 0.00 | 0.00 | 0.00 | 33 | 1011.0 |
| 20260505203004 | 27 | 30 | 1.6 | 11.3 | 0.00 | 0.00 | 0.00 | 31 | 1011.1 |
| 20260505202504 | 27 | 119 | 0.0 | 8.0 | 0.00 | 0.00 | 0.00 | 32 | 1011.2 |
| 20260505201504 | 26 | 178 | 1.6 | 4.8 | 0.00 | 0.00 | 0.00 | 35 | 1011.2 |
| 20260505200504 | 26 | 208 | 4.8 | 11.3 | 0.00 | 0.00 | 0.00 | 32 | 1011.4 |
| 20260505195504 | 26 | 341 | 0.0 | 8.0 | 0.00 | 0.00 | 0.00 | 35 | 1011.5 |
| 20260505195003 | 26 | 157 | 1.6 | 4.8 | 0.00 | 0.00 | 0.00 | 33 | 1011.6 |
| 20260505193503 | 26 | 168 | 0.0 | 4.8 | 0.00 | 0.00 | 0.00 | 32 | 1012.0 |
| 20260505191504 | 26 | 212 | 1.6 | 3.2 | 0.00 | 0.00 | 0.00 | 33 | 1012.2 |
| 20260505191004 | 26 | 319 | 0.0 | 3.2 | 0.00 | 0.00 | 0.00 | 33 | 1012.3 |
| 20260505190003 | 26 | 236 | 1.6 | 4.8 | 0.00 | 0.00 | 0.00 | 36 | 1012.4 |
| 20260505185504 | 26 | 335 | 1.6 | 8.0 | 0.00 | 0.00 | 0.00 | 35 | 1012.5 |
| 20260505185003 | 25 | 244 | 3.2 | 9.7 | 0.00 | 0.00 | 0.00 | 35 | 1012.6 |
| 20260505184003 | 26 | 160 | 4.8 | 11.3 | 0.00 | 0.00 | 0.00 | 34 | 1012.6 |
| 20260505183504 | 26 | 283 | 1.6 | 9.7 | 0.00 | 0.00 | 0.00 | 35 | 1012.6 |
| 20260505183004 | 26 | 242 | 1.6 | 9.7 | 0.00 | 0.00 | 0.00 | 35 | 1012.6 |
| 20260505181504 | 25 | 227 | 3.2 | 9.7 | 0.00 | 0.00 | 0.00 | 35 | 1012.7 |
| 20260505181003 | 25 | 357 | 0.0 | 1.6 | 0.00 | 0.00 | 0.00 | 34 | 1012.8 |
| 20260505180004 | 25 | 341 | 1.6 | 8.0 | 0.00 | 0.00 | 0.00 | 37 | 1013.1 |
| 20260505175504 | 25 | 338 | 1.6 | 8.0 | 0.00 | 0.00 | 0.00 | 37 | 1013.3 |
| 20260505175004 | 25 | 20 | 0.0 | 4.8 | 0.00 | 0.00 | 0.00 | 38 | 1013.4 |
| 20260505174503 | 25 | 86 | 1.6 | 4.8 | 0.00 | 0.00 | 0.00 | 34 | 1013.5 |
| 20260505174004 | 25 | 90 | 1.6 | 4.8 | 0.00 | 0.00 | 0.00 | 37 | 1013.6 |
| 20260505173503 | 25 | 298 | 0.0 | 1.6 | 0.00 | 0.00 | 0.00 | 38 | 1013.6 |
| 20260505173004 | 25 | 257 | 0.0 | 4.8 | 0.00 | 0.00 | 0.00 | 35 | 1013.6 |
| 20260505172504 | 25 | 153 | 3.2 | 11.3 | 0.00 | 0.00 | 0.00 | 35 | 1013.8 |
| 20260505172003 | 25 | 222 | 4.8 | 12.9 | 0.00 | 0.00 | 0.00 | 34 | 1013.7 |
| 20260505171505 | 25 | 253 | 4.8 | 11.3 | 0.00 | 0.00 | 0.00 | 35 | 1013.8 |
| 20260505171004 | 25 | 61 | 0.0 | 3.2 | 0.00 | 0.00 | 0.00 | 38 | 1013.7 |
| 20260505170003 | 25 | 8 | 3.2 | 4.8 | 0.00 | 0.00 | 0.00 | 36 | 1013.6 |
| 20260505165503 | 24 | 185 | 1.6 | 3.2 | 0.00 | 0.00 | 0.00 | 37 | 1013.4 |
| 20260505165004 | 24 | 273 | 0.0 | 3.2 | 0.00 | 0.00 | 0.00 | 37 | 1013.5 |
| 20260505164504 | 23 | 354 | 1.6 | 3.2 | 0.00 | 0.00 | 0.00 | 37 | 1013.5 |
| 20260505164004 | 23 | 253 | 3.2 | 11.3 | 0.00 | 0.00 | 0.00 | 38 | 1013.6 |
| 20260505163503 | 23 | 196 | 8.0 | 19.3 | 0.00 | 0.00 | 0.00 | 37 | 1013.6 |
| 20260505161504 | 23 | 161 | 0.0 | 4.8 | 0.00 | 0.00 | 0.00 | 44 | 1013.9 |
| 20260505161003 | 23 | 61 | 3.2 | 4.8 | 0.00 | 0.00 | 0.00 | 46 | 1013.9 |
| 20260505153004 | 21 | 221 | 1.6 | 9.7 | 0.00 | 0.00 | 0.00 | 50 | 1014.2 |
| 20260505152004 | 21 | 35 | 0.0 | 1.6 | 0.00 | 0.00 | 0.00 | 52 | 1014.2 |
| 20260505151503 | 21 | 56 | 0.0 | 0.0 | 0.00 | 0.00 | 0.00 | 56 | 1014.4 |
| 20260505151004 | 20 | 49 | 0.0 | 0.0 | 0.00 | 0.00 | 0.00 | 55 | 1014.5 |
| 20260505150504 | 20 | 191 | 0.0 | 9.7 | 0.00 | 0.00 | 0.00 | 56 | 1014.5 |
| 20260505140503 | 17 | 226 | 0.0 | 0.0 | 0.00 | 0.00 | 0.00 | 70 | 1014.3 |
| 20260505125004 | 13 | 95 | 0.0 | 0.0 | 0.00 | 0.00 | 0.00 | 89 | 1014.0 |
| 20260505124503 | 12 | 105 | 0.0 | 0.0 | 0.00 | 0.00 | 0.00 | 90 | 1014.0 |
| 20260505124004 | 12 | 37 | 0.0 | 0.0 | 0.00 | 0.00 | 0.00 | 91 | 1014.0 |
| 20260505123504 | 12 | 37 | 0.0 | 0.0 | 0.00 | 0.00 | 0.00 | 93 | 1014.1 |
| 20260505123004 | 11 | 38 | 0.0 | 0.0 | 0.00 | 0.00 | 0.00 | 94 | 1014.0 |
| 20260505122503 | 11 | 32 | 0.0 | 0.0 | 0.00 | 0.00 | 0.00 | 95 | 1013.9 |
| 20260505121504 | 10 | 35 | 0.0 | 0.0 | 0.00 | 0.00 | 0.00 | 94 | 1013.9 |
| 20260505121003 | 10 | 223 | 0.0 | 0.0 | 0.00 | 0.00 | 0.00 | 94 | 1013.9 |
| 20260505120504 | 10 | 246 | 0.0 | 0.0 | 0.00 | 0.00 | 0.00 | 95 | 1013.9 |
| 20260505120005 | 10 | 214 | 0.0 | 0.0 | 0.00 | 0.00 | 0.00 | 94 | 1013.9 |
| 20260505115504 | 10 | 209 | 0.0 | 0.0 | 0.00 | 0.00 | 0.00 | 93 | 1013.8 |
| 20260505115004 | 10 | 219 | 0.0 | 0.0 | 0.00 | 0.00 | 0.00 | 93 | 1013.8 |
| 20260505114503 | 9 | 219 | 0.0 | 0.0 | 0.00 | 0.00 | 0.00 | 93 | 1013.7 |
| 20260505113503 | 9 | 225 | 0.0 | 0.0 | 0.00 | 0.00 | 0.00 | 92 | 1013.5 |
| 20260505112004 | 9 | 193 | 0.0 | 0.0 | 0.00 | 0.00 | 0.00 | 92 | 1013.5 |
| 20260505111503 | 9 | 192 | 0.0 | 0.0 | 0.00 | 0.00 | 0.00 | 92 | 1013.5 |
| 20260505111004 | 9 | 190 | 0.0 | 0.0 | 0.00 | 0.00 | 0.00 | 92 | 1013.6 |
| 20260505110503 | 9 | 188 | 0.0 | 0.0 | 0.00 | 0.00 | 0.00 | 91 | 1013.7 |
| 20260505102003 | 10 | 199 | 0.0 | 0.0 | 0.00 | 0.00 | 0.00 | 89 | 1013.2 |
| 20260505101004 | 10 | 199 | 0.0 | 0.0 | 0.00 | 0.00 | 0.00 | 89 | 1013.1 |
| 20260505095004 | 10 | 200 | 0.0 | 0.0 | 0.00 | 0.00 | 0.00 | 88 | 1012.9 |
| 20260505094503 | 10 | 205 | 0.0 | 0.0 | 0.00 | 0.00 | 0.00 | 87 | 1013.0 |
| 20260505094004 | 10 | 198 | 0.0 | 0.0 | 0.00 | 0.00 | 0.00 | 87 | 1013.0 |
| 20260505093503 | 10 | 202 | 0.0 | 0.0 | 0.00 | 0.00 | 0.00 | 87 | 1012.9 |
| 20260505092503 | 10 | 217 | 0.0 | 0.0 | 0.00 | 0.00 | 0.00 | 86 | 1012.8 |
| 20260505092003 | 10 | 220 | 0.0 | 0.0 | 0.00 | 0.00 | 0.00 | 86 | 1012.8 |
| 20260505091504 | 10 | 214 | 0.0 | 0.0 | 0.00 | 0.00 | 0.00 | 86 | 1012.8 |
| 20260505091004 | 10 | 217 | 0.0 | 0.0 | 0.00 | 0.00 | 0.00 | 85 | 1012.8 |
| 20260505090503 | 10 | 219 | 0.0 | 0.0 | 0.00 | 0.00 | 0.00 | 84 | 1012.7 |
| 20260505085503 | 10 | 225 | 0.0 | 0.0 | 0.00 | 0.00 | 0.00 | 84 | 1012.7 |
| 20260505085004 | 10 | 215 | 0.0 | 0.0 | 0.00 | 0.00 | 0.00 | 83 | 1012.7 |
| 20260505084503 | 10 | 260 | 0.0 | 0.0 | 0.00 | 0.00 | 0.00 | 83 | 1012.7 |
| 20260505084004 | 10 | 261 | 0.0 | 0.0 | 0.00 | 0.00 | 0.00 | 82 | 1012.7 |
| 20260505083503 | 11 | 260 | 0.0 | 0.0 | 0.00 | 0.00 | 0.00 | 82 | 1012.7 |
| 20260505082504 | 11 | 25 | 0.0 | 0.0 | 0.00 | 0.00 | 0.00 | 81 | 1012.6 |
| 20260505082004 | 11 | 24 | 0.0 | 0.0 | 0.00 | 0.00 | 0.00 | 81 | 1012.5 |
| 20260505081504 | 11 | 28 | 0.0 | 0.0 | 0.00 | 0.00 | 0.00 | 81 | 1012.5 |
| 20260505081004 | 11 | 32 | 0.0 | 0.0 | 0.00 | 0.00 | 0.00 | 81 | 1012.5 |
| 20260505080004 | 11 | 53 | 0.0 | 0.0 | 0.00 | 0.00 | 0.00 | 80 | 1012.5 |
| 20260505075504 | 11 | 47 | 0.0 | 0.0 | 0.00 | 0.00 | 0.00 | 79 | 1012.6 |
| 20260505074504 | 11 | 40 | 0.0 | 0.0 | 0.00 | 0.00 | 0.00 | 78 | 1012.6 |
| 20260505074004 | 12 | 65 | 0.0 | 0.0 | 0.00 | 0.00 | 0.00 | 78 | 1012.4 |
| 20260505073504 | 12 | 58 | 0.0 | 0.0 | 0.00 | 0.00 | 0.00 | 77 | 1012.3 |
| 20260505072504 | 12 | 54 | 0.0 | 0.0 | 0.00 | 0.00 | 0.00 | 76 | 1012.3 |
| 20260505072004 | 12 | 48 | 0.0 | 0.0 | 0.00 | 0.00 | 0.00 | 77 | 1012.3 |
| 20260505071504 | 12 | 56 | 0.0 | 0.0 | 0.00 | 0.00 | 0.00 | 76 | 1012.4 |
| 20260505071004 | 12 | 48 | 0.0 | 0.0 | 0.00 | 0.00 | 0.00 | 75 | 1012.4 |
| 20260505070003 | 12 | 46 | 1.6 | 3.2 | 0.00 | 0.00 | 0.00 | 76 | 1012.4 |
| 20260505065503 | 12 | 42 | 0.0 | 0.0 | 0.00 | 0.00 | 0.00 | 73 | 1012.3 |
| 20260505065003 | 12 | 42 | 0.0 | 0.0 | 0.00 | 0.00 | 0.00 | 73 | 1012.3 |
| 20260505064503 | 12 | 36 | 0.0 | 0.0 | 0.00 | 0.00 | 0.00 | 74 | 1012.4 |
| 20260505064004 | 12 | 26 | 0.0 | 0.0 | 0.00 | 0.00 | 0.00 | 72 | 1012.3 |
| 20260505063504 | 12 | 25 | 0.0 | 0.0 | 0.00 | 0.00 | 0.00 | 72 | 1012.3 |
| 20260505063004 | 12 | 24 | 0.0 | 0.0 | 0.00 | 0.00 | 0.00 | 75 | 1012.3 |
| 20260505062503 | 12 | 23 | 0.0 | 0.0 | 0.00 | 0.00 | 0.00 | 73 | 1012.3 |
| 20260505061503 | 13 | 23 | 0.0 | 0.0 | 0.00 | 0.00 | 0.00 | 71 | 1012.2 |
| 20260505060504 | 13 | 21 | 0.0 | 0.0 | 0.00 | 0.00 | 0.00 | 70 | 1012.2 |
| 20260505060004 | 13 | 21 | 0.0 | 0.0 | 0.00 | 0.00 | 0.00 | 70 | 1012.2 |
| 20260505055504 | 13 | 24 | 0.0 | 0.0 | 0.00 | 0.00 | 0.00 | 70 | 1012.1 |
| 20260505055004 | 13 | 21 | 0.0 | 0.0 | 0.00 | 0.00 | 0.00 | 71 | 1012.2 |
| 20260505054503 | 13 | 20 | 0.0 | 0.0 | 0.00 | 0.00 | 0.00 | 72 | 1012.2 |
| 20260505053504 | 14 | 21 | 0.0 | 0.0 | 0.00 | 0.00 | 0.00 | 67 | 1012.2 |
| 20260505053004 | 14 | 17 | 0.0 | 0.0 | 0.00 | 0.00 | 0.00 | 65 | 1012.2 |
| 20260505052504 | 14 | 22 | 0.0 | 0.0 | 0.00 | 0.00 | 0.00 | 64 | 1012.2 |
| 20260505051504 | 15 | 21 | 0.0 | 0.0 | 0.00 | 0.00 | 0.00 | 63 | 1012.4 |
| 20260505051004 | 15 | 28 | 0.0 | 0.0 | 0.00 | 0.00 | 0.00 | 62 | 1012.4 |
| 20260505050504 | 15 | 30 | 0.0 | 0.0 | 0.00 | 0.00 | 0.00 | 60 | 1012.4 |
| 20260505041504 | 16 | 32 | 0.0 | 0.0 | 0.00 | 0.00 | 0.00 | 55 | 1012.4 |
| 20260505041004 | 16 | 33 | 0.0 | 0.0 | 0.00 | 0.00 | 0.00 | 53 | 1012.5 |
| 20260505040504 | 16 | 33 | 0.0 | 0.0 | 0.00 | 0.00 | 0.00 | 53 | 1012.5 |
| 20260505040005 | 16 | 34 | 0.0 | 0.0 | 0.00 | 0.00 | 0.00 | 53 | 1012.6 |
| 20260505035504 | 17 | 34 | 0.0 | 0.0 | 0.00 | 0.00 | 0.00 | 53 | 1012.6 |
| 20260505035004 | 17 | 35 | 0.0 | 0.0 | 0.00 | 0.00 | 0.00 | 53 | 1012.6 |
| 20260505034503 | 17 | 31 | 0.0 | 0.0 | 0.00 | 0.00 | 0.00 | 53 | 1012.6 |
| 20260505033503 | 17 | 35 | 0.0 | 0.0 | 0.00 | 0.00 | 0.00 | 52 | 1012.7 |
| 20260505032504 | 17 | 35 | 0.0 | 0.0 | 0.00 | 0.00 | 0.00 | 52 | 1012.6 |
| 20260505032003 | 17 | 38 | 0.0 | 0.0 | 0.00 | 0.00 | 0.00 | 52 | 1012.6 |
| 20260505031503 | 17 | 5 | 0.0 | 0.0 | 0.00 | 0.00 | 0.00 | 52 | 1012.6 |
| 20260505031004 | 17 | 6 | 0.0 | 0.0 | 0.00 | 0.00 | 0.00 | 51 | 1012.6 |
| 20260505030504 | 17 | 5 | 0.0 | 0.0 | 0.00 | 0.00 | 0.00 | 51 | 1012.7 |
| 20260505030004 | 17 | 5 | 0.0 | 0.0 | 0.00 | 0.00 | 0.00 | 51 | 1012.7 |
| 20260505025504 | 17 | 4 | 0.0 | 0.0 | 0.00 | 0.00 | 0.00 | 52 | 1012.7 |
| 20260505025004 | 17 | 4 | 0.0 | 0.0 | 0.00 | 0.00 | 0.00 | 52 | 1012.7 |
| 20260505024004 | 18 | 4 | 0.0 | 0.0 | 0.00 | 0.00 | 0.00 | 50 | 1012.7 |
| 20260505023504 | 18 | 4 | 0.0 | 0.0 | 0.00 | 0.00 | 0.00 | 50 | 1012.6 |
| 20260505023004 | 18 | 3 | 0.0 | 0.0 | 0.00 | 0.00 | 0.00 | 49 | 1012.5 |
| 20260505022503 | 18 | 3 | 0.0 | 0.0 | 0.00 | 0.00 | 0.00 | 49 | 1012.5 |
| 20260505022004 | 18 | 3 | 0.0 | 0.0 | 0.00 | 0.00 | 0.00 | 49 | 1012.5 |
| 20260505021503 | 18 | 3 | 0.0 | 0.0 | 0.00 | 0.00 | 0.00 | 50 | 1012.5 |
| 20260505020504 | 18 | 3 | 0.0 | 0.0 | 0.00 | 0.00 | 0.00 | 49 | 1012.5 |
| 20260505020003 | 18 | 3 | 0.0 | 0.0 | 0.00 | 0.00 | 0.00 | 49 | 1012.6 |
| 20260505015504 | 18 | 3 | 0.0 | 0.0 | 0.00 | 0.00 | 0.00 | 48 | 1012.4 |
| 20260505014504 | 18 | 3 | 0.0 | 0.0 | 0.00 | 0.00 | 0.00 | 49 | 1012.3 |
| 20260505014004 | 18 | 3 | 0.0 | 0.0 | 0.00 | 0.00 | 0.00 | 50 | 1012.3 |
| 20260505013503 | 18 | 3 | 0.0 | 0.0 | 0.00 | 0.00 | 0.00 | 49 | 1012.3 |
| 20260505013004 | 18 | 3 | 0.0 | 0.0 | 0.00 | 0.00 | 0.00 | 49 | 1012.3 |
| 20260505012503 | 18 | 3 | 0.0 | 0.0 | 0.00 | 0.00 | 0.00 | 49 | 1012.2 |
| 20260505012004 | 18 | 3 | 0.0 | 0.0 | 0.00 | 0.00 | 0.00 | 48 | 1012.1 |
| 20260505011504 | 18 | 3 | 0.0 | 0.0 | 0.00 | 0.00 | 0.00 | 48 | 1012.1 |
| 20260505011004 | 18 | 4 | 0.0 | 0.0 | 0.00 | 0.00 | 0.00 | 47 | 1012.1 |
| 20260505010504 | 19 | 12 | 0.0 | 0.0 | 0.00 | 0.00 | 0.00 | 48 | 1012.0 |
| 20260505010004 | 19 | 25 | 0.0 | 0.0 | 0.00 | 0.00 | 0.00 | 48 | 1012.1 |
| 20260505005504 | 19 | 25 | 0.0 | 0.0 | 0.00 | 0.00 | 0.00 | 46 | 1012.1 |
| 20260505005004 | 20 | 25 | 0.0 | 0.0 | 0.00 | 0.00 | 0.00 | 46 | 1012.0 |
| 20260505004503 | 20 | 25 | 0.0 | 0.0 | 0.00 | 0.00 | 0.00 | 46 | 1011.9 |
| 20260505004004 | 20 | 25 | 0.0 | 0.0 | 0.00 | 0.00 | 0.00 | 46 | 1011.9 |
| 20260505003504 | 20 | 25 | 0.0 | 0.0 | 0.00 | 0.00 | 0.00 | 45 | 1011.8 |
| 20260505003003 | 20 | 25 | 0.0 | 0.0 | 0.00 | 0.00 | 0.00 | 45 | 1011.8 |
| 20260505002504 | 20 | 25 | 0.0 | 0.0 | 0.00 | 0.00 | 0.00 | 45 | 1011.8 |
| 20260505002003 | 21 | 25 | 0.0 | 0.0 | 0.00 | 0.00 | 0.00 | 44 | 1011.9 |
| 20260505001503 | 21 | 25 | 0.0 | 0.0 | 0.00 | 0.00 | 0.00 | 43 | 1011.9 |
| 20260505001004 | 21 | 25 | 0.0 | 0.0 | 0.00 | 0.00 | 0.00 | 43 | 1011.8 |
| 20260505000503 | 21 | 20 | 0.0 | 0.0 | 0.00 | 0.00 | 0.00 | 41 | 1011.8 |
| 20260505000003 | 22 | 16 | 0.0 | 0.0 | 0.00 | 0.00 | 0.00 | 40 | 1012.0 |
| 20260504235503 | 22 | 14 | 0.0 | 0.0 | 0.00 | 0.00 | 0.00 | 40 | 1011.9 |
| 20260504235004 | 22 | 15 | 0.0 | 0.0 | 0.00 | 0.00 | 0.00 | 39 | 1011.8 |
| 20260504234504 | 22 | 14 | 0.0 | 0.0 | 0.00 | 0.00 | 0.00 | 38 | 1011.8 |
| 20260504234003 | 22 | 24 | 0.0 | 0.0 | 0.00 | 0.00 | 0.00 | 37 | 1011.8 |
| 20260504233504 | 23 | 13 | 0.0 | 0.0 | 0.00 | 0.00 | 0.00 | 37 | 1011.7 |
| 20260504233003 | 23 | 13 | 0.0 | 0.0 | 0.00 | 0.00 | 0.00 | 36 | 1011.7 |
| 20260504232504 | 23 | 13 | 0.0 | 0.0 | 0.00 | 0.00 | 0.00 | 35 | 1011.6 |
| 20260504232003 | 23 | 13 | 0.0 | 0.0 | 0.00 | 0.00 | 0.00 | 34 | 1011.6 |
| 20260504231003 | 24 | 13 | 0.0 | 0.0 | 0.00 | 0.00 | 0.00 | 32 | 1011.6 |
| 20260504230504 | 24 | 13 | 0.0 | 0.0 | 0.00 | 0.00 | 0.00 | 33 | 1011.6 |
| 20260504230003 | 24 | 13 | 0.0 | 0.0 | 0.00 | 0.00 | 0.00 | 33 | 1011.5 |
| 20260504225003 | 24 | 13 | 0.0 | 0.0 | 0.00 | 0.00 | 0.00 | 30 | 1011.5 |
| 20260504224504 | 24 | 3 | 0.0 | 4.8 | 0.00 | 0.00 | 0.00 | 31 | 1011.5 |
| 20260504224004 | 25 | 22 | 0.0 | 3.2 | 0.00 | 0.00 | 0.00 | 32 | 1011.6 |
| 20260504223503 | 25 | 10 | 0.0 | 1.6 | 0.00 | 0.00 | 0.00 | 32 | 1011.6 |
| 20260504223004 | 25 | 289 | 0.0 | 0.0 | 0.00 | 0.00 | 0.00 | 33 | 1011.6 |
| 20260504222503 | 25 | 42 | 0.0 | 0.0 | 0.00 | 0.00 | 0.00 | 34 | 1011.7 |
| 20260504222004 | 25 | 12 | 0.0 | 0.0 | 0.00 | 0.00 | 0.00 | 32 | 1011.7 |
| 20260504221504 | 24 | 304 | 0.0 | 0.0 | 0.00 | 0.00 | 0.00 | 33 | 1011.7 |
| 20260504221004 | 24 | 304 | 0.0 | 0.0 | 0.00 | 0.00 | 0.00 | 33 | 1011.7 |
| 20260504220503 | 24 | 316 | 0.0 | 0.0 | 0.00 | 0.00 | 0.00 | 32 | 1011.7 |
| 20260504220004 | 25 | 342 | 0.0 | 0.0 | 0.00 | 0.00 | 0.00 | 31 | 1011.6 |
| 20260504215504 | 25 | 342 | 0.0 | 0.0 | 0.00 | 0.00 | 0.00 | 32 | 1011.6 |
| 20260504215004 | 25 | 27 | 0.0 | 0.0 | 0.00 | 0.00 | 0.00 | 30 | 1011.5 |